Time;durP1;ratioP1;P1;durP2;ratioP2;P2;SDS_P1;SDS_P2;PMS_P1;PMS_P2;Temp;Humidity;BMP_temperature;BMP_pressure;BME280_temperature;BME280_humidity;BME280_pressure;Samples;Min_cycle;Max_cycle;Signal;HPM_P1;HPM_P2
2023/09/05 00:00:05;;;;;;;8.73;2.60;;;;;;;23.60;55.45;99705.59;5050697;28;20067;-78
2023/09/05 00:02:30;;;;;;;9.95;2.55;;;;;;;23.63;54.87;99708.06;5050509;28;20492;-83
2023/09/05 00:04:56;;;;;;;8.17;3.17;;;;;;;23.58;55.89;99700.28;5032815;28;20028;-81
2023/09/05 00:07:22;;;;;;;12.63;2.77;;;;;;;23.62;55.76;99717.94;5050686;28;20031;-79
2023/09/05 00:09:48;;;;;;;9.43;2.80;;;;;;;23.60;55.92;99721.72;5051951;28;20131;-77
2023/09/05 00:12:13;;;;;;;8.45;2.78;;;;;;;23.60;56.07;99724.41;5050590;28;20029;-76
2023/09/05 00:14:39;;;;;;;10.27;3.10;;;;;;;23.54;57.05;99719.44;5049883;28;20023;-80
2023/09/05 00:17:04;;;;;;;12.47;2.63;;;;;;;23.50;56.60;99725.00;5050375;28;20021;-77
2023/09/05 00:19:30;;;;;;;7.57;2.77;;;;;;;23.48;56.87;99726.94;5049249;28;20186;-83
2023/09/05 00:21:55;;;;;;;11.57;2.73;;;;;;;23.43;57.09;99715.63;5050662;28;20044;-77
2023/09/05 00:24:28;;;;;;;11.65;2.95;;;;;;;23.45;57.00;99710.16;5050504;28;20017;-76
2023/09/05 00:26:55;;;;;;;9.13;2.50;;;;;;;23.37;57.03;99686.50;5078616;28;20059;-76
2023/09/05 00:29:22;;;;;;;10.52;2.67;;;;;;;23.41;57.12;99669.19;5090713;28;20103;-85
2023/09/05 00:31:47;;;;;;;9.45;3.05;;;;;;;23.38;57.34;99655.97;5090310;28;20047;-77
2023/09/05 00:34:14;;;;;;;10.03;2.63;;;;;;;23.34;57.67;99657.16;5090423;28;20407;-76
2023/09/05 00:36:40;;;;;;;8.70;2.88;;;;;;;23.30;57.59;99647.59;5090258;28;20036;-77
2023/09/05 00:39:05;;;;;;;9.90;3.22;;;;;;;23.25;58.22;99644.28;5090334;28;20127;-77
2023/09/05 00:41:31;;;;;;;10.97;2.93;;;;;;;23.20;58.80;99641.94;5090255;28;20032;-76
2023/09/05 00:43:58;;;;;;;12.48;2.90;;;;;;;23.14;59.11;99637.81;5089234;28;20048;-76
2023/09/05 00:46:23;;;;;;;10.25;2.80;;;;;;;23.20;58.57;99641.94;5049835;28;20039;-76
2023/09/05 00:48:48;;;;;;;10.03;2.97;;;;;;;23.15;58.79;99642.22;5049661;28;20009;-76
2023/09/05 00:51:14;;;;;;;8.80;2.60;;;;;;;23.23;58.21;99656.00;5049955;28;20029;-88
2023/09/05 00:53:39;;;;;;;8.40;2.90;;;;;;;23.21;58.07;99660.63;5048435;28;20025;-77
2023/09/05 00:56:05;;;;;;;8.60;2.70;;;;;;;23.26;57.74;99663.03;5058122;28;20051;-81
2023/09/05 00:58:30;;;;;;;9.67;2.70;;;;;;;23.30;57.86;99674.44;5069911;28;20029;-76
2023/09/05 01:00:56;;;;;;;11.47;2.90;;;;;;;23.34;57.33;99665.22;5069823;28;20033;-87
2023/09/05 01:03:22;;;;;;;9.63;2.85;;;;;;;23.35;57.34;99669.63;5069624;28;20029;-77
2023/09/05 01:05:54;;;;;;;14.80;3.63;;;;;;;23.32;57.62;99677.88;5068447;28;20063;-76
2023/09/05 01:08:26;;;;;;;8.48;2.78;;;;;;;23.30;57.40;99674.44;5069352;28;20494;-76
2023/09/05 01:11:08;;;;;;;8.65;3.03;;;;;;;23.31;57.61;99679.69;5069478;28;20036;-77
2023/09/05 01:13:37;;;;;;;10.82;2.78;;;;;;;23.31;57.22;99679.69;5069555;28;20035;-77
2023/09/05 01:16:02;;;;;;;10.68;3.70;;;;;;;23.30;57.12;99661.03;5069570;28;20024;-80
2023/09/05 01:18:33;;;;;;;8.30;2.67;;;;;;;23.27;57.02;99663.88;5069907;28;20107;-78
2023/09/05 01:21:08;;;;;;;8.68;2.85;;;;;;;23.27;56.81;99664.75;5069762;28;20475;-76
2023/09/05 01:23:49;;;;;;;9.35;2.85;;;;;;;23.09;57.85;99662.28;5069926;28;20032;-84
2023/09/05 01:26:15;;;;;;;9.43;2.88;;;;;;;23.19;57.21;99659.00;5078228;28;20028;-86
2023/09/05 01:28:43;;;;;;;13.25;3.30;;;;;;;23.20;57.10;99664.25;5089528;28;20462;-76
2023/09/05 01:31:10;;;;;;;9.33;2.80;;;;;;;23.19;56.87;99678.66;5089012;28;20083;-76
2023/09/05 01:33:39;;;;;;;6.50;2.65;;;;;;;23.20;56.75;99669.63;5089340;28;20048;-80
2023/09/05 01:36:06;;;;;;;10.55;2.60;;;;;;;23.21;56.69;99654.41;5089463;28;20084;-82
2023/09/05 01:38:32;;;;;;;11.25;2.80;;;;;;;23.25;56.61;99655.94;5089609;28;20029;-76
2023/09/05 01:40:58;;;;;;;8.25;2.75;;;;;;;23.27;56.39;99658.50;5075968;28;20450;-79
2023/09/05 01:43:23;;;;;;;9.33;2.77;;;;;;;23.25;56.27;99664.00;5049424;28;20025;-76
2023/09/05 01:45:48;;;;;;;11.67;3.13;;;;;;;23.19;56.34;99657.16;5048983;28;20040;-76
2023/09/05 01:48:14;;;;;;;8.93;3.10;;;;;;;23.21;56.35;99659.78;5048901;28;20078;-76
2023/09/05 01:50:39;;;;;;;9.67;3.03;;;;;;;23.26;56.02;99654.97;5048950;28;20033;-76
2023/09/05 01:53:04;;;;;;;9.87;2.53;;;;;;;23.22;56.12;99651.59;5049160;28;20112;-76
2023/09/05 01:55:30;;;;;;;10.77;3.03;;;;;;;23.22;55.87;99654.28;5051630;28;20043;-76
2023/09/05 01:57:55;;;;;;;7.70;2.75;;;;;;;23.29;56.07;99662.81;5069439;28;20581;-80
2023/09/05 02:00:21;;;;;;;6.73;2.77;;;;;;;23.26;56.12;99664.84;5069142;28;20079;-76
2023/09/05 02:02:47;;;;;;;6.43;2.37;;;;;;;23.30;55.66;99669.91;5068963;28;20041;-77
2023/09/05 02:05:12;;;;;;;8.55;2.40;;;;;;;23.31;55.86;99676.16;5069062;28;20028;-76
2023/09/05 02:07:38;;;;;;;9.07;2.80;;;;;;;23.32;55.71;99675.19;5068809;28;20033;-76
2023/09/05 02:10:05;;;;;;;10.15;3.13;;;;;;;23.35;55.95;99677.69;5068806;28;20228;-76
2023/09/05 02:12:32;;;;;;;9.83;2.57;;;;;;;23.37;55.88;99678.44;5068946;28;20028;-76
2023/09/05 02:15:00;;;;;;;13.18;2.97;;;;;;;23.37;56.04;99683.81;5069000;28;20683;-76
2023/09/05 02:17:30;;;;;;;8.20;2.97;;;;;;;23.28;56.41;99682.59;5069666;28;20482;-76
2023/09/05 02:19:57;;;;;;;10.65;2.30;;;;;;;23.33;56.30;99687.66;5068832;28;20021;-77
2023/09/05 02:22:23;;;;;;;9.25;2.50;;;;;;;23.34;56.44;99686.72;5068761;28;20036;-80
2023/09/05 02:24:48;;;;;;;8.30;2.83;;;;;;;23.34;56.41;99689.38;5068833;28;20031;-76
2023/09/05 02:27:13;;;;;;;11.00;2.80;;;;;;;23.34;56.79;99708.19;5085713;28;20032;-76
2023/09/05 02:29:39;;;;;;;7.93;2.97;;;;;;;23.32;56.82;99710.97;5089284;28;20028;-76
2023/09/05 02:32:04;;;;;;;7.47;2.50;;;;;;;23.34;56.72;99713.56;5088933;28;20059;-87
2023/09/05 02:34:30;;;;;;;9.77;3.03;;;;;;;23.33;56.89;99722.59;5089094;28;20058;-83
2023/09/05 02:36:55;;;;;;;8.47;3.10;;;;;;;23.32;56.90;99707.44;5080535;28;20055;-82
2023/09/05 02:39:21;;;;;;;10.43;2.72;;;;;;;23.35;56.84;99712.59;5052101;28;20036;-80
2023/09/05 02:41:46;;;;;;;8.80;2.87;;;;;;;23.39;56.47;99714.13;5052566;28;20539;-81
2023/09/05 02:44:12;;;;;;;8.57;2.80;;;;;;;23.37;56.73;99716.91;5052513;28;20347;-79
2023/09/05 02:46:37;;;;;;;7.50;2.70;;;;;;;23.34;57.04;99714.41;5052287;28;20029;-77
2023/09/05 02:49:02;;;;;;;7.83;2.70;;;;;;;23.34;56.98;99729.69;5053050;28;20400;-85
2023/09/05 02:51:28;;;;;;;8.83;2.70;;;;;;;23.34;56.65;99727.00;5053635;28;20080;-76
2023/09/05 02:53:56;;;;;;;11.67;2.90;;;;;;;23.35;57.15;99726.03;5052398;28;20081;-76
2023/09/05 02:56:22;;;;;;;11.77;2.58;;;;;;;23.33;57.28;99725.28;5061769;28;20108;-76
2023/09/05 02:58:48;;;;;;;9.30;2.87;;;;;;;23.28;57.50;99736.31;5072012;28;20132;-77
2023/09/05 03:01:14;;;;;;;10.88;3.00;;;;;;;23.23;57.95;99744.63;5072041;28;20036;-87
2023/09/05 03:03:40;;;;;;;10.82;2.92;;;;;;;23.27;57.77;99756.09;5071713;28;20024;-77
2023/09/05 03:06:16;;;;;;;12.67;2.90;;;;;;;23.25;57.92;99747.28;5072291;28;20531;-78
2023/09/05 03:08:44;;;;;;;9.10;2.85;;;;;;;23.26;57.88;99740.06;5071881;28;20024;-76
2023/09/05 03:11:10;;;;;;;9.10;2.80;;;;;;;23.26;57.99;99737.38;5071520;28;20427;-76
2023/09/05 03:13:35;;;;;;;9.18;3.05;;;;;;;23.26;57.78;99734.69;5071814;28;20110;-77
2023/09/05 03:16:01;;;;;;;7.93;2.63;;;;;;;23.27;57.69;99741.78;5072169;28;20489;-78
2023/09/05 03:18:26;;;;;;;7.70;2.80;;;;;;;23.21;57.97;99746.56;5071556;28;20043;-84
2023/09/05 03:20:52;;;;;;;8.20;2.80;;;;;;;23.23;58.13;99754.53;5071778;28;20074;-76
2023/09/05 03:23:18;;;;;;;11.07;2.80;;;;;;;23.25;57.84;99749.06;5071476;28;20036;-79
2023/09/05 03:25:44;;;;;;;8.27;3.00;;;;;;;23.23;57.87;99750.00;5075980;28;20051;-76
2023/09/05 03:28:12;;;;;;;9.85;2.63;;;;;;;23.25;57.78;99743.69;5091566;28;20027;-76
2023/09/05 03:30:41;;;;;;;7.60;2.67;;;;;;;23.19;58.38;99750.34;5091182;28;20052;-76
2023/09/05 03:33:07;;;;;;;9.63;3.00;;;;;;;23.18;58.36;99746.78;5084138;28;20424;-77
2023/09/05 03:35:33;;;;;;;10.03;2.80;;;;;;;23.17;58.22;99752.25;5051493;28;20027;-79
2023/09/05 03:37:59;;;;;;;8.95;3.00;;;;;;;23.13;58.63;99754.28;5054592;28;20488;-83
2023/09/05 03:40:24;;;;;;;7.43;2.60;;;;;;;23.11;58.73;99752.63;5051277;28;20043;-76
2023/09/05 03:42:49;;;;;;;9.00;2.77;;;;;;;23.10;58.51;99757.16;5050964;28;20048;-76
2023/09/05 03:45:15;;;;;;;7.90;3.00;;;;;;;23.04;59.03;99754.88;5050960;28;20274;-76
2023/09/05 03:47:40;;;;;;;11.30;3.20;;;;;;;23.04;58.88;99749.50;5050893;28;20029;-76
2023/09/05 03:50:07;;;;;;;7.53;2.90;;;;;;;23.05;58.64;99751.22;5051095;28;20457;-88
2023/09/05 03:52:32;;;;;;;11.02;3.00;;;;;;;23.04;58.88;99769.16;5051090;28;20055;-77
2023/09/05 03:54:58;;;;;;;8.23;2.70;;;;;;;23.01;58.92;99761.31;5051233;28;20458;-80
2023/09/05 03:57:23;;;;;;;10.05;2.97;;;;;;;22.99;58.89;99771.28;5069358;28;20095;-84
2023/09/05 03:59:48;;;;;;;9.83;3.23;;;;;;;23.00;59.02;99775.69;5071437;28;20032;-82
2023/09/05 04:02:14;;;;;;;9.00;3.03;;;;;;;23.02;58.65;99779.13;5071541;28;20070;-80
2023/09/05 04:04:39;;;;;;;9.13;2.90;;;;;;;23.06;58.05;99780.66;5070835;28;20046;-85
2023/09/05 04:07:06;;;;;;;6.00;2.57;;;;;;;23.11;58.14;99777.69;5070766;28;20031;-77
2023/09/05 04:09:32;;;;;;;8.43;3.03;;;;;;;23.15;58.03;99772.97;5070918;28;20025;-77
2023/09/05 04:11:57;;;;;;;7.87;2.93;;;;;;;23.13;58.18;99789.19;5070671;28;20044;-76
2023/09/05 04:14:22;;;;;;;9.38;2.83;;;;;;;23.10;58.01;99792.06;5070808;28;20368;-77
2023/09/05 04:16:48;;;;;;;7.00;2.47;;;;;;;23.11;57.71;99799.16;5071365;28;20032;-84
2023/09/05 04:19:13;;;;;;;8.03;3.00;;;;;;;23.10;57.82;99792.06;5070672;28;20063;-82
2023/09/05 04:21:41;;;;;;;10.43;3.30;;;;;;;23.06;57.96;99787.88;5052488;28;20035;-76
2023/09/05 04:24:07;;;;;;;12.80;3.00;;;;;;;23.02;58.03;99781.81;5070550;28;20199;-76
2023/09/05 04:26:33;;;;;;;8.67;2.93;;;;;;;23.00;57.96;99786.44;5082248;28;20229;-76
2023/09/05 04:28:59;;;;;;;8.32;2.88;;;;;;;22.96;58.13;99784.91;5089484;28;20279;-76
2023/09/05 04:31:25;;;;;;;9.80;2.55;;;;;;;22.95;57.92;99788.56;5050183;28;20048;-77
2023/09/05 04:33:51;;;;;;;9.47;2.63;;;;;;;22.93;58.00;99794.00;5050402;28;20040;-77
2023/09/05 04:36:16;;;;;;;7.57;2.78;;;;;;;22.90;57.83;99796.00;5050493;28;20376;-78
2023/09/05 04:38:45;;;;;;;9.63;2.87;;;;;;;22.85;58.33;99792.75;5050496;28;20036;-76
2023/09/05 04:41:11;;;;;;;7.50;2.80;;;;;;;22.82;58.10;99791.16;5050344;28;20029;-76
2023/09/05 04:43:37;;;;;;;8.10;2.40;;;;;;;22.77;58.21;99788.75;5050116;28;20024;-76
2023/09/05 04:46:03;;;;;;;9.27;2.87;;;;;;;22.79;58.13;99788.66;5050238;28;20040;-76
2023/09/05 04:48:29;;;;;;;8.30;2.85;;;;;;;22.78;57.82;99794.97;5050207;28;20060;-76
2023/09/05 04:50:54;;;;;;;8.18;3.03;;;;;;;22.72;57.46;99795.34;5050040;28;20480;-77
2023/09/05 04:53:20;;;;;;;9.87;2.70;;;;;;;22.76;57.51;99795.06;5050233;28;20021;-80
2023/09/05 04:55:47;;;;;;;8.97;2.70;;;;;;;22.76;57.62;99800.44;5054822;28;20032;-76
2023/09/05 04:58:13;;;;;;;9.63;2.92;;;;;;;22.74;57.59;99809.53;5070099;28;20365;-76
2023/09/05 05:00:39;;;;;;;8.70;2.73;;;;;;;22.75;57.43;99808.59;5069549;28;20180;-77
2023/09/05 05:03:05;;;;;;;7.47;2.40;;;;;;;22.79;57.27;99804.78;5070020;28;20025;-78
2023/09/05 05:05:30;;;;;;;7.33;2.53;;;;;;;22.81;57.12;99805.53;5051599;28;20503;-84
2023/09/05 05:07:56;;;;;;;6.72;2.38;;;;;;;22.85;57.00;99804.38;5069702;28;20048;-76
2023/09/05 05:10:21;;;;;;;9.00;2.93;;;;;;;22.87;56.79;99799.78;5069457;28;20028;-76
2023/09/05 05:12:47;;;;;;;6.47;2.13;;;;;;;22.87;56.62;99810.50;5070188;28;20111;-76
2023/09/05 05:15:13;;;;;;;9.70;2.50;;;;;;;22.88;56.34;99804.19;5069821;28;20469;-76
2023/09/05 05:17:39;;;;;;;7.13;2.45;;;;;;;22.88;56.45;99822.09;5051631;28;20035;-82
2023/09/05 05:20:05;;;;;;;8.40;2.50;;;;;;;22.80;56.90;99831.50;5069811;28;20116;-83
2023/09/05 05:22:31;;;;;;;7.75;2.58;;;;;;;22.78;56.59;99835.22;5069933;28;20024;-76
2023/09/05 05:24:58;;;;;;;9.33;2.80;;;;;;;22.78;56.62;99835.22;5069399;28;20036;-83
2023/09/05 05:27:23;;;;;;;8.75;2.65;;;;;;;22.78;56.48;99845.97;5050568;28;20032;-78
2023/09/05 05:29:48;;;;;;;9.47;2.70;;;;;;;22.77;56.48;99841.56;5062026;28;20049;-77
2023/09/05 05:32:14;;;;;;;7.10;2.67;;;;;;;22.78;56.36;99837.91;5069665;28;20391;-77
2023/09/05 05:34:39;;;;;;;7.13;2.27;;;;;;;22.75;56.39;99835.41;5069709;28;20385;-79
2023/09/05 05:37:04;;;;;;;8.27;2.47;;;;;;;22.74;56.32;99836.38;5069651;28;20047;-77
2023/09/05 05:39:30;;;;;;;11.00;2.67;;;;;;;22.71;56.45;99834.78;5069597;28;20032;-76
2023/09/05 05:41:55;;;;;;;6.60;2.40;;;;;;;22.69;56.49;99836.69;5069729;28;20101;-83
2023/09/05 05:44:21;;;;;;;10.80;2.80;;;;;;;22.64;56.53;99828.91;5069607;28;20032;-84
2023/09/05 05:46:46;;;;;;;8.83;3.07;;;;;;;22.62;56.50;99830.84;5069299;28;20514;-77
2023/09/05 05:49:12;;;;;;;10.13;2.87;;;;;;;22.62;56.38;99830.84;5069708;28;20032;-82
2023/09/05 05:51:37;;;;;;;6.70;2.20;;;;;;;22.64;56.26;99838.78;5051266;28;20383;-76
2023/09/05 05:54:03;;;;;;;6.40;2.23;;;;;;;22.66;55.98;99836.84;5069486;28;20028;-76
2023/09/05 05:56:29;;;;;;;10.35;3.00;;;;;;;22.67;56.05;99843.97;5058676;28;20501;-77
2023/09/05 05:58:54;;;;;;;10.43;2.90;;;;;;;22.75;55.79;99840.78;5049450;28;20033;-77
2023/09/05 06:01:20;;;;;;;8.10;2.40;;;;;;;22.80;55.19;99860.19;5052269;28;20029;-76
2023/09/05 06:03:46;;;;;;;7.05;2.22;;;;;;;22.81;55.25;99851.16;5052704;28;20021;-77
2023/09/05 06:06:12;;;;;;;6.32;2.47;;;;;;;22.85;55.06;99857.19;5050463;28;20104;-76
2023/09/05 06:08:38;;;;;;;9.80;2.73;;;;;;;22.92;54.77;99858.56;5049755;28;20403;-83
2023/09/05 06:11:03;;;;;;;6.30;2.50;;;;;;;22.94;54.54;99856.63;5051472;28;20082;-82
2023/09/05 06:13:29;;;;;;;8.90;2.43;;;;;;;22.98;54.45;99862.66;5050977;28;20462;-86
2023/09/05 06:15:54;;;;;;;6.72;2.30;;;;;;;23.01;54.04;99867.84;5052944;28;20025;-84
2023/09/05 06:18:20;;;;;;;9.80;2.37;;;;;;;23.04;53.97;99867.66;5053205;28;20029;-78
2023/09/05 06:20:45;;;;;;;7.33;2.30;;;;;;;23.09;53.58;99862.88;5053774;28;20116;-79
2023/09/05 06:23:10;;;;;;;6.67;2.27;;;;;;;23.16;53.45;99871.41;5054299;28;20049;-90
2023/09/05 06:25:36;;;;;;;7.13;2.20;;;;;;;23.18;52.91;99878.38;5074395;28;20158;-91
2023/09/05 06:28:02;;;;;;;35.15;5.25;;;;;;;23.17;52.78;99873.97;5093378;28;20024;-78
2023/09/05 06:30:27;;;;;;;21.33;3.47;;;;;;;23.27;52.87;99868.91;5093410;28;20051;-88
2023/09/05 06:32:53;;;;;;;22.25;3.38;;;;;;;23.31;52.40;99869.59;5093746;28;20028;-78
2023/09/05 06:35:18;;;;;;;10.47;2.47;;;;;;;23.38;52.35;99865.53;5093294;28;20420;-89
2023/09/05 06:37:48;;;;;;;7.67;2.47;;;;;;;23.42;52.04;99860.84;5092883;28;20024;-83
2023/09/05 06:40:15;;;;;;;8.45;3.05;;;;;;;23.45;51.97;99856.13;5093289;28;20032;-83
2023/09/05 06:42:44;;;;;;;8.20;2.20;;;;;;;23.50;51.63;99869.25;5093254;28;20028;-78
2023/09/05 06:45:10;;;;;;;7.70;2.22;;;;;;;23.54;51.43;99864.56;5093437;28;20097;-77
2023/09/05 06:47:36;;;;;;;6.43;2.20;;;;;;;23.58;51.24;99877.69;5092925;28;20068;-81
2023/09/05 06:50:05;;;;;;;8.05;2.45;;;;;;;23.65;51.23;99872.78;5092856;28;20056;-77
2023/09/05 06:52:30;;;;;;;5.73;2.10;;;;;;;23.70;51.29;99884.09;5092527;28;20380;-83
2023/09/05 06:54:56;;;;;;;6.43;2.30;;;;;;;23.77;50.78;99874.69;5092629;28;20165;-82
2023/09/05 06:57:21;;;;;;;6.70;2.17;;;;;;;23.85;50.37;99884.06;5074193;28;20085;-80
2023/09/05 06:59:49;;;;;;;8.97;2.57;;;;;;;23.92;50.33;99882.66;5072084;28;20025;-78
2023/09/05 07:02:14;;;;;;;7.23;2.37;;;;;;;23.97;50.22;99888.59;5054002;28;20297;-79
2023/09/05 07:04:39;;;;;;;9.60;2.60;;;;;;;24.03;50.09;99882.00;5072065;28;20028;-78
2023/09/05 07:07:05;;;;;;;7.50;2.53;;;;;;;24.10;50.62;99877.06;5073571;28;20028;-77
2023/09/05 07:09:30;;;;;;;9.80;2.70;;;;;;;24.16;50.59;99868.59;5072484;28;20039;-81
2023/09/05 07:11:56;;;;;;;7.67;2.50;;;;;;;24.21;50.57;99875.38;5072155;28;20028;-77
2023/09/05 07:14:21;;;;;;;6.13;2.60;;;;;;;24.28;50.67;99870.47;5072296;28;20351;-77
2023/09/05 07:16:47;;;;;;;8.07;2.50;;;;;;;24.29;50.56;99857.84;5071810;28;20032;-77
2023/09/05 07:19:12;;;;;;;6.23;2.80;;;;;;;24.37;50.07;99859.06;5058747;28;20067;-78
2023/09/05 07:21:40;;;;;;;7.50;2.20;;;;;;;24.46;50.34;99867.44;5051725;28;20033;-87
2023/09/05 07:24:07;;;;;;;9.02;2.90;;;;;;;24.55;50.30;99868.66;5051226;28;20025;-78
2023/09/05 07:26:33;;;;;;;7.32;2.47;;;;;;;24.59;49.88;99864.78;5074653;28;20031;-77
2023/09/05 07:28:58;;;;;;;8.07;2.53;;;;;;;24.66;50.31;99858.00;5092087;28;20508;-78
2023/09/05 07:31:30;;;;;;;8.05;2.58;;;;;;;24.69;50.12;99857.78;5092131;28;20048;-85
2023/09/05 07:33:55;;;;;;;8.17;3.20;;;;;;;24.79;50.07;99858.03;5092102;28;20073;-78
2023/09/05 07:36:21;;;;;;;10.20;3.05;;;;;;;24.91;50.25;99859.00;5091635;28;20339;-78
2023/09/05 07:38:46;;;;;;;11.47;3.03;;;;;;;24.99;49.72;99859.31;5091460;28;20028;-78
2023/09/05 07:41:11;;;;;;;10.07;3.00;;;;;;;25.08;50.02;99871.28;5091594;28;20024;-78
2023/09/05 07:43:37;;;;;;;12.47;3.13;;;;;;;25.18;49.68;99871.47;5091504;28;20035;-79
2023/09/05 07:46:02;;;;;;;8.60;2.77;;;;;;;25.22;49.62;99873.84;5091670;28;20024;-85
2023/09/05 07:48:28;;;;;;;10.32;2.90;;;;;;;25.30;49.91;99885.91;5092239;28;20047;-78
2023/09/05 07:51:04;;;;;;;7.97;2.70;;;;;;;25.34;49.50;99879.31;5091458;28;20115;-84
2023/09/05 07:53:31;;;;;;;33.03;4.35;;;;;;;25.44;49.25;99868.72;5091693;28;20032;-82
2023/09/05 07:55:57;;;;;;;9.23;2.90;;;;;;;25.56;49.26;99884.03;5085999;28;20021;-83
2023/09/05 07:58:22;;;;;;;8.33;2.90;;;;;;;25.68;48.65;99889.50;5071695;28;20476;-80
2023/09/05 08:00:48;;;;;;;10.25;3.13;;;;;;;25.79;48.23;99873.38;5070951;28;20103;-78
2023/09/05 08:03:14;;;;;;;9.63;3.07;;;;;;;25.91;48.23;99876.97;5070962;28;20036;-79
2023/09/05 08:05:39;;;;;;;6.97;2.40;;;;;;;26.01;48.04;99878.03;5071003;28;20031;-78
2023/09/05 08:08:05;;;;;;;8.40;2.50;;;;;;;26.11;47.55;99869.22;5071192;28;20056;-78
2023/09/05 08:10:30;;;;;;;6.73;2.63;;;;;;;26.18;46.95;99859.75;5071077;28;20094;-78
2023/09/05 08:12:56;;;;;;;7.45;2.97;;;;;;;26.28;46.12;99871.53;5070754;28;20488;-79
2023/09/05 08:15:21;;;;;;;9.67;2.53;;;;;;;26.42;46.13;99877.72;5059457;28;20338;-78
2023/09/05 08:17:47;;;;;;;8.00;2.90;;;;;;;26.57;46.12;99872.97;5051383;28;20052;-79
2023/09/05 08:20:13;;;;;;;8.70;2.60;;;;;;;26.68;45.21;99874.84;5051250;28;20391;-79
2023/09/05 08:22:38;;;;;;;7.50;2.35;;;;;;;26.73;44.80;99875.34;5051170;28;20040;-78
2023/09/05 08:25:04;;;;;;;5.97;2.30;;;;;;;26.79;44.28;99880.25;5050539;28;20032;-83
2023/09/05 08:27:30;;;;;;;9.00;2.42;;;;;;;26.81;43.86;99880.97;5089349;28;20622;-81
2023/09/05 08:29:57;;;;;;;6.43;2.40;;;;;;;26.84;43.44;99880.72;5090736;28;20085;-79
2023/09/05 08:32:23;;;;;;;6.68;2.25;;;;;;;26.85;43.46;99866.28;5090485;28;20039;-83
2023/09/05 08:34:48;;;;;;;8.02;2.70;;;;;;;26.98;43.55;99876.13;5090439;28;20024;-79
2023/09/05 08:37:14;;;;;;;6.67;2.20;;;;;;;27.10;42.59;99875.13;5090677;28;20123;-78
2023/09/05 08:39:39;;;;;;;7.70;2.70;;;;;;;27.20;42.28;99872.56;5090870;28;20016;-79
2023/09/05 08:42:08;;;;;;;6.50;2.47;;;;;;;27.30;42.21;99875.38;5091775;28;20031;-78
2023/09/05 08:44:41;;;;;;;7.25;2.20;;;;;;;27.34;41.83;99868.72;5090519;28;20024;-79
2023/09/05 08:47:06;;;;;;;6.65;2.45;;;;;;;27.39;41.69;99881.88;5090304;28;20025;-79
2023/09/05 08:49:32;;;;;;;6.30;2.53;;;;;;;27.29;41.22;99874.53;5090176;28;20549;-87
2023/09/05 08:52:02;;;;;;;7.23;2.60;;;;;;;27.42;41.42;99878.94;5090293;28;20506;-79
2023/09/05 08:54:27;;;;;;;8.32;2.67;;;;;;;27.52;41.46;99885.34;5090753;28;20024;-79
2023/09/05 08:56:53;;;;;;;6.83;2.10;;;;;;;27.62;41.01;99890.88;5075955;28;20047;-83
2023/09/05 08:59:19;;;;;;;5.40;2.15;;;;;;;27.72;40.81;99891.81;5070471;28;20029;-78
2023/09/05 09:01:45;;;;;;;9.27;2.50;;;;;;;27.72;40.38;99890.94;5069968;28;20067;-78
2023/09/05 09:04:12;;;;;;;9.07;2.20;;;;;;;27.78;40.37;99890.47;5070268;28;20025;-78
2023/09/05 09:06:38;;;;;;;6.85;2.17;;;;;;;27.76;40.53;99890.56;5070382;28;20247;-81
2023/09/05 09:09:03;;;;;;;7.07;2.50;;;;;;;27.95;40.77;99880.94;5069920;28;20219;-78
2023/09/05 09:11:29;;;;;;;6.73;2.30;;;;;;;28.08;40.22;99886.16;5058602;28;20033;-81
2023/09/05 09:13:59;;;;;;;9.00;2.35;;;;;;;27.98;40.13;99877.13;5049844;28;20038;-78
2023/09/05 09:16:25;;;;;;;9.60;2.50;;;;;;;28.13;39.81;99880.38;5049771;28;20040;-87
2023/09/05 09:19:03;;;;;;;10.00;2.33;;;;;;;28.16;39.55;99877.44;5031567;28;20029;-79
2023/09/05 09:21:29;;;;;;;7.43;2.20;;;;;;;28.26;39.49;99878.38;5050313;28;20036;-78
2023/09/05 09:23:59;;;;;;;6.47;2.47;;;;;;;28.34;39.67;99873.19;5049831;28;20025;-79
2023/09/05 09:26:26;;;;;;;30.95;4.35;;;;;;;28.45;39.16;99874.94;5070440;28;20067;-84
2023/09/05 09:28:52;;;;;;;10.00;2.78;;;;;;;28.48;39.29;99881.94;5090560;28;20605;-79
2023/09/05 09:31:25;;;;;;;8.20;2.55;;;;;;;28.50;39.09;99883.53;5089504;28;20465;-81
2023/09/05 09:33:57;;;;;;;7.45;2.30;;;;;;;28.57;39.33;99870.31;5089630;28;20290;-81
2023/09/05 09:36:23;;;;;;;7.07;2.63;;;;;;;28.61;39.37;99874.50;5089791;28;20122;-80
2023/09/05 09:38:48;;;;;;;7.55;2.47;;;;;;;28.76;38.89;99857.88;5089597;28;20554;-79
2023/09/05 09:41:15;;;;;;;7.90;2.40;;;;;;;28.73;39.16;99871.69;5089635;28;20027;-81
2023/09/05 09:43:40;;;;;;;6.03;2.65;;;;;;;28.86;39.13;99869.66;5089987;28;20024;-79
2023/09/05 09:46:08;;;;;;;8.90;2.50;;;;;;;28.98;38.55;99872.28;5089701;28;20522;-80
2023/09/05 09:48:35;;;;;;;6.18;2.50;;;;;;;29.12;38.74;99880.06;5093907;28;20028;-80
2023/09/05 09:51:04;;;;;;;7.60;2.65;;;;;;;29.26;38.55;99875.25;5094949;28;20032;-80
2023/09/05 09:53:39;;;;;;;8.60;2.92;;;;;;;29.29;38.77;99877.69;5094356;28;20386;-79
2023/09/05 09:56:10;;;;;;;7.07;2.60;;;;;;;29.39;38.43;99870.44;5086004;28;20392;-84
2023/09/05 09:58:38;;;;;;;6.75;2.30;;;;;;;29.41;38.59;99871.19;5073278;28;20107;-81
2023/09/05 10:01:04;;;;;;;8.48;2.80;;;;;;;29.47;38.33;99862.50;5073898;28;20518;-83
2023/09/05 10:03:30;;;;;;;7.35;2.75;;;;;;;29.62;38.48;99870.25;5073385;28;20085;-80
2023/09/05 10:05:57;;;;;;;5.40;2.47;;;;;;;29.68;38.13;99869.69;5073979;28;20036;-80
2023/09/05 10:08:24;;;;;;;7.70;2.93;;;;;;;29.80;38.15;99873.13;5057448;28;20075;-80
2023/09/05 10:10:51;;;;;;;5.78;2.40;;;;;;;29.90;37.89;99878.56;5053200;28;20033;-79
2023/09/05 10:13:17;;;;;;;6.55;2.72;;;;;;;29.96;37.87;99867.13;5052954;28;20032;-80
2023/09/05 10:15:44;;;;;;;5.95;2.75;;;;;;;30.08;37.39;99866.03;5053763;28;20090;-81
2023/09/05 10:18:12;;;;;;;7.15;2.70;;;;;;;30.13;37.66;99862.88;5053026;28;20040;-80
2023/09/05 10:20:39;;;;;;;9.07;2.80;;;;;;;30.28;37.71;99855.19;5053114;28;20032;-82
2023/09/05 10:23:05;;;;;;;6.63;2.53;;;;;;;30.47;37.44;99856.13;5053053;28;20033;-81
2023/09/05 10:25:31;;;;;;;7.63;2.72;;;;;;;30.49;37.45;99856.84;5058513;28;20028;-80
2023/09/05 10:27:57;;;;;;;9.07;2.50;;;;;;;30.59;36.90;99857.69;5094131;28;20090;-87
2023/09/05 10:30:22;;;;;;;6.38;2.40;;;;;;;30.69;37.61;99857.69;5092780;28;20510;-84
2023/09/05 10:32:49;;;;;;;6.93;2.83;;;;;;;30.85;37.09;99856.19;5092998;28;20064;-80
2023/09/05 10:35:18;;;;;;;9.55;3.42;;;;;;;30.92;36.49;99863.63;5094193;28;20043;-80
2023/09/05 10:37:48;;;;;;;7.67;2.60;;;;;;;30.93;36.04;99859.88;5093828;28;20415;-89
2023/09/05 10:40:14;;;;;;;9.85;2.83;;;;;;;30.94;37.05;99856.16;5093685;28;20595;-80
2023/09/05 10:42:43;;;;;;;7.85;2.80;;;;;;;30.94;36.94;99856.16;5093019;28;20202;-89
2023/09/05 10:45:23;;;;;;;8.60;2.67;;;;;;;30.97;36.79;99859.59;5093026;28;20207;-81
2023/09/05 10:47:56;;;;;;;7.95;2.67;;;;;;;31.11;36.54;99864.56;5092680;28;20100;-79
2023/09/05 10:50:23;;;;;;;8.10;2.90;;;;;;;31.21;36.76;99857.22;5093167;28;20063;-79
2023/09/05 10:53:11;;;;;;;8.25;3.00;;;;;;;31.21;36.30;99859.94;5092524;28;20051;-80
2023/09/05 10:55:44;;;;;;;8.35;2.80;;;;;;;31.29;36.73;99851.03;5072669;28;20040;-80
2023/09/05 10:58:56;;;;;;;8.18;3.03;;;;;;;31.33;36.15;99844.28;5053570;28;20032;-80
2023/09/05 11:01:29;;;;;;;8.13;2.80;;;;;;;31.45;36.12;99844.09;5072780;28;20031;-80
2023/09/05 11:04:03;;;;;;;8.00;2.57;;;;;;;31.49;36.67;99824.59;5062396;28;20039;-80
2023/09/05 11:06:29;;;;;;;8.48;2.90;;;;;;;31.55;35.85;99833.13;5052293;28;20079;-85
2023/09/05 11:08:57;;;;;;;7.38;2.75;;;;;;;31.50;36.00;99834.47;5052096;28;20029;-85
2023/09/05 11:11:23;;;;;;;8.00;2.95;;;;;;;31.55;36.36;99833.13;5052619;28;20033;-79
2023/09/05 11:13:50;;;;;;;11.48;3.17;;;;;;;31.61;36.22;99829.78;5052451;28;20041;-81
2023/09/05 11:16:15;;;;;;;8.97;2.97;;;;;;;31.68;36.17;99830.88;5052165;28;20253;-80
2023/09/05 11:18:46;;;;;;;7.63;3.07;;;;;;;31.67;35.98;99822.88;5051792;28;20297;-83
2023/09/05 11:21:23;;;;;;;9.67;3.17;;;;;;;31.71;36.71;99814.25;5052255;28;20305;-86
2023/09/05 11:23:55;;;;;;;9.23;3.10;;;;;;;31.79;36.46;99817.09;5052554;28;20285;-89
2023/09/05 11:26:21;;;;;;;8.05;3.03;;;;;;;31.90;36.09;99817.84;5071984;28;20109;-81
2023/09/05 11:28:48;;;;;;;8.27;3.28;;;;;;;31.89;35.44;99813.41;5092137;28;20027;-88